sensor_id;sensor_type;location;lat;lon;timestamp;pressure;altitude;pressure_sealevel;temperature;humidity
70323;BME280;57735;56.264;43.898;2023-09-30T00:01:27;101188.94;;;11.21;91.76
70323;BME280;57735;56.264;43.898;2023-09-30T00:03:58;101181.94;;;11.20;91.67
70323;BME280;57735;56.264;43.898;2023-09-30T00:06:28;101169.44;;;11.21;91.86
70323;BME280;57735;56.264;43.898;2023-09-30T00:08:59;101179.97;;;11.22;91.86
70323;BME280;57735;56.264;43.898;2023-09-30T00:11:30;101165.59;;;11.23;91.80
70323;BME280;57735;56.264;43.898;2023-09-30T00:14:01;101166.31;;;11.25;91.80
70323;BME280;57735;56.264;43.898;2023-09-30T00:16:32;101169.44;;;11.30;91.67
70323;BME280;57735;56.264;43.898;2023-09-30T00:19:02;101166.47;;;11.33;91.74
70323;BME280;57735;56.264;43.898;2023-09-30T00:21:34;101168.59;;;11.39;91.61
70323;BME280;57735;56.264;43.898;2023-09-30T00:24:05;101167.03;;;11.46;91.42
70323;BME280;57735;56.264;43.898;2023-09-30T00:26:36;101155.69;;;11.54;91.33
70323;BME280;57735;56.264;43.898;2023-09-30T00:29:06;101161.00;;;11.64;91.34
70323;BME280;57735;56.264;43.898;2023-09-30T00:31:40;101162.00;;;11.72;91.09
70323;BME280;57735;56.264;43.898;2023-09-30T00:34:11;101166.38;;;11.83;90.75
70323;BME280;57735;56.264;43.898;2023-09-30T00:36:42;101162.81;;;11.92;90.45
70323;BME280;57735;56.264;43.898;2023-09-30T00:39:13;101165.78;;;11.99;90.22
70323;BME280;57735;56.264;43.898;2023-09-30T00:41:46;101157.88;;;12.07;89.92
70323;BME280;57735;56.264;43.898;2023-09-30T00:44:27;101157.88;;;12.16;89.56
70323;BME280;57735;56.264;43.898;2023-09-30T00:47:01;101155.28;;;12.24;89.34
70323;BME280;57735;56.264;43.898;2023-09-30T00:49:32;101156.69;;;12.29;88.87
70323;BME280;57735;56.264;43.898;2023-09-30T00:52:06;101165.97;;;12.34;88.61
70323;BME280;57735;56.264;43.898;2023-09-30T00:54:38;101160.19;;;12.39;88.31
70323;BME280;57735;56.264;43.898;2023-09-30T00:57:10;101162.25;;;12.45;88.03
70323;BME280;57735;56.264;43.898;2023-09-30T00:59:42;101160.16;;;12.48;87.85
70323;BME280;57735;56.264;43.898;2023-09-30T01:02:17;101163.53;;;12.50;87.58
70323;BME280;57735;56.264;43.898;2023-09-30T01:04:51;101155.34;;;12.52;87.32
70323;BME280;57735;56.264;43.898;2023-09-30T01:07:22;101149.03;;;12.53;87.21
70323;BME280;57735;56.264;43.898;2023-09-30T01:09:52;101144.50;;;12.53;87.22
70323;BME280;57735;56.264;43.898;2023-09-30T01:12:24;101154.22;;;12.54;87.01
70323;BME280;57735;56.264;43.898;2023-09-30T01:14:58;101147.03;;;12.55;86.79
70323;BME280;57735;56.264;43.898;2023-09-30T01:17:30;101140.00;;;12.54;86.59
70323;BME280;57735;56.264;43.898;2023-09-30T01:20:01;101142.69;;;12.54;86.56
70323;BME280;57735;56.264;43.898;2023-09-30T01:22:35;101140.84;;;12.54;86.51
70323;BME280;57735;56.264;43.898;2023-09-30T01:25:07;101144.22;;;12.56;86.40
70323;BME280;57735;56.264;43.898;2023-09-30T01:27:40;101142.38;;;12.57;86.30
70323;BME280;57735;56.264;43.898;2023-09-30T01:30:11;101134.19;;;12.58;86.14
70323;BME280;57735;56.264;43.898;2023-09-30T01:32:44;101134.19;;;12.58;85.90
70323;BME280;57735;56.264;43.898;2023-09-30T01:35:15;101132.34;;;12.59;85.67
70323;BME280;57735;56.264;43.898;2023-09-30T01:37:46;101130.38;;;12.61;85.64
70323;BME280;57735;56.264;43.898;2023-09-30T01:40:19;101132.91;;;12.63;85.54
70323;BME280;57735;56.264;43.898;2023-09-30T01:42:50;101134.59;;;12.64;85.51
70323;BME280;57735;56.264;43.898;2023-09-30T01:45:23;101135.44;;;12.64;85.39
70323;BME280;57735;56.264;43.898;2023-09-30T01:47:54;101137.13;;;12.65;85.28
70323;BME280;57735;56.264;43.898;2023-09-30T01:50:25;101132.63;;;12.66;85.12
70323;BME280;57735;56.264;43.898;2023-09-30T01:52:55;101127.97;;;12.68;85.02
70323;BME280;57735;56.264;43.898;2023-09-30T01:55:26;101124.31;;;12.69;84.79
70323;BME280;57735;56.264;43.898;2023-09-30T01:57:59;101122.47;;;12.69;84.65
70323;BME280;57735;56.264;43.898;2023-09-30T02:00:31;101120.78;;;12.68;84.59
70323;BME280;57735;56.264;43.898;2023-09-30T02:03:02;101116.00;;;12.72;84.08
70323;BME280;57735;56.264;43.898;2023-09-30T02:05:33;101116.13;;;12.70;84.18
70323;BME280;57735;56.264;43.898;2023-09-30T02:08:04;101112.47;;;12.71;84.03
70323;BME280;57735;56.264;43.898;2023-09-30T02:10:36;101115.16;;;12.71;83.82
70323;BME280;57735;56.264;43.898;2023-09-30T02:13:07;101117.81;;;12.71;83.75
70323;BME280;57735;56.264;43.898;2023-09-30T02:15:40;101115.16;;;12.71;83.64
70323;BME280;57735;56.264;43.898;2023-09-30T02:18:13;101110.63;;;12.72;83.86
70323;BME280;57735;56.264;43.898;2023-09-30T02:20:45;101116.84;;;12.72;83.69
70323;BME280;57735;56.264;43.898;2023-09-30T02:23:18;101121.19;;;12.73;83.29
70323;BME280;57735;56.264;43.898;2023-09-30T02:25:49;101112.84;;;12.76;83.01
70323;BME280;57735;56.264;43.898;2023-09-30T02:28:20;101120.16;;;12.74;83.01
70323;BME280;57735;56.264;43.898;2023-09-30T02:30:51;101105.13;;;12.73;82.91
70323;BME280;57735;56.264;43.898;2023-09-30T02:33:23;101112.63;;;12.70;83.00
70323;BME280;57735;56.264;43.898;2023-09-30T02:35:53;101111.06;;;12.67;83.20
70323;BME280;57735;56.264;43.898;2023-09-30T02:38:24;101107.00;;;12.63;83.32
70323;BME280;57735;56.264;43.898;2023-09-30T02:40:55;101102.94;;;12.59;83.34
70323;BME280;57735;56.264;43.898;2023-09-30T02:43:26;101095.25;;;12.56;83.50
70323;BME280;57735;56.264;43.898;2023-09-30T02:45:57;101106.22;;;12.53;83.49
70323;BME280;57735;56.264;43.898;2023-09-30T02:48:28;101104.53;;;12.52;83.47
70323;BME280;57735;56.264;43.898;2023-09-30T02:50:59;101098.50;;;12.50;83.44
70323;BME280;57735;56.264;43.898;2023-09-30T02:53:29;101087.94;;;12.48;83.49
70323;BME280;57735;56.264;43.898;2023-09-30T02:56:00;101087.25;;;12.46;83.46
70323;BME280;57735;56.264;43.898;2023-09-30T02:58:34;101082.19;;;12.43;83.52
70323;BME280;57735;56.264;43.898;2023-09-30T03:01:05;101076.16;;;12.41;83.40
70323;BME280;57735;56.264;43.898;2023-09-30T03:03:37;101080.66;;;12.41;83.55
70323;BME280;57735;56.264;43.898;2023-09-30T03:06:10;101073.66;;;12.40;83.62
70323;BME280;57735;56.264;43.898;2023-09-30T03:08:41;101075.63;;;12.38;83.74
70323;BME280;57735;56.264;43.898;2023-09-30T03:11:12;101078.31;;;12.38;83.69
70323;BME280;57735;56.264;43.898;2023-09-30T03:13:43;101077.13;;;12.40;83.82
70323;BME280;57735;56.264;43.898;2023-09-30T03:16:18;101068.97;;;12.42;83.65
70323;BME280;57735;56.264;43.898;2023-09-30T03:18:51;101073.19;;;12.44;83.44
70323;BME280;57735;56.264;43.898;2023-09-30T03:21:21;101078.38;;;12.46;83.42
70323;BME280;57735;56.264;43.898;2023-09-30T03:23:52;101076.69;;;12.45;83.38
70323;BME280;57735;56.264;43.898;2023-09-30T03:26:23;101081.75;;;12.48;83.25
70323;BME280;57735;56.264;43.898;2023-09-30T03:28:54;101078.94;;;12.49;83.21
70323;BME280;57735;56.264;43.898;2023-09-30T03:31:25;101083.00;;;12.53;83.11
70323;BME280;57735;56.264;43.898;2023-09-30T03:33:56;101088.22;;;12.55;83.20
70323;BME280;57735;56.264;43.898;2023-09-30T03:36:26;101085.22;;;12.58;83.24
70323;BME280;57735;56.264;43.898;2023-09-30T03:39:02;101089.28;;;12.62;83.07
70323;BME280;57735;56.264;43.898;2023-09-30T03:41:36;101079.81;;;12.68;82.86
70323;BME280;57735;56.264;43.898;2023-09-30T03:44:07;101082.91;;;12.73;82.64
70323;BME280;57735;56.264;43.898;2023-09-30T03:46:38;101081.44;;;12.78;82.23
70323;BME280;57735;56.264;43.898;2023-09-30T03:49:09;101079.84;;;12.85;81.93
70323;BME280;57735;56.264;43.898;2023-09-30T03:51:40;101069.34;;;12.92;81.55
70323;BME280;57735;56.264;43.898;2023-09-30T03:54:11;101065.94;;;13.00;81.25
70323;BME280;57735;56.264;43.898;2023-09-30T03:56:42;101076.72;;;13.08;80.92
70323;BME280;57735;56.264;43.898;2023-09-30T03:59:17;101076.84;;;13.16;80.65
70323;BME280;57735;56.264;43.898;2023-09-30T04:01:49;101072.72;;;13.21;79.89
70323;BME280;57735;56.264;43.898;2023-09-30T04:04:20;101070.25;;;13.28;79.75
70323;BME280;57735;56.264;43.898;2023-09-30T04:06:54;101073.16;;;13.35;79.37
70323;BME280;57735;56.264;43.898;2023-09-30T04:09:24;101063.66;;;13.40;79.18
70323;BME280;57735;56.264;43.898;2023-09-30T04:11:58;101068.22;;;13.48;78.96
70323;BME280;57735;56.264;43.898;2023-09-30T04:14:29;101072.13;;;13.53;78.94
70323;BME280;57735;56.264;43.898;2023-09-30T04:17:00;101073.19;;;13.60;78.34
70323;BME280;57735;56.264;43.898;2023-09-30T04:19:31;101062.84;;;13.66;77.82
70323;BME280;57735;56.264;43.898;2023-09-30T04:22:02;101065.59;;;13.74;77.75
70323;BME280;57735;56.264;43.898;2023-09-30T04:24:34;101072.00;;;13.81;76.79
70323;BME280;57735;56.264;43.898;2023-09-30T04:27:05;101061.66;;;13.86;76.82
70323;BME280;57735;56.264;43.898;2023-09-30T04:29:38;101060.00;;;13.93;76.39
70323;BME280;57735;56.264;43.898;2023-09-30T04:32:10;101063.88;;;13.98;76.20
70323;BME280;57735;56.264;43.898;2023-09-30T04:34:41;101057.06;;;14.04;75.85
70323;BME280;57735;56.264;43.898;2023-09-30T04:37:12;101055.72;;;14.08;75.37
70323;BME280;57735;56.264;43.898;2023-09-30T04:39:42;101057.94;;;14.13;75.62
70323;BME280;57735;56.264;43.898;2023-09-30T04:42:14;101051.25;;;14.17;74.67
70323;BME280;57735;56.264;43.898;2023-09-30T04:44:47;101049.56;;;14.16;74.66
70323;BME280;57735;56.264;43.898;2023-09-30T04:47:18;101051.25;;;14.17;74.67
70323;BME280;57735;56.264;43.898;2023-09-30T04:49:52;101056.63;;;14.17;74.78
70323;BME280;57735;56.264;43.898;2023-09-30T04:52:23;101054.94;;;14.16;74.43
70323;BME280;57735;56.264;43.898;2023-09-30T04:54:57;101049.03;;;14.12;74.03
70323;BME280;57735;56.264;43.898;2023-09-30T04:57:28;101048.19;;;14.12;73.97
70323;BME280;57735;56.264;43.898;2023-09-30T05:00:04;101047.53;;;14.10;74.07
70323;BME280;57735;56.264;43.898;2023-09-30T05:02:41;101056.25;;;14.12;74.23
70323;BME280;57735;56.264;43.898;2023-09-30T05:05:15;101051.72;;;14.12;74.09
70323;BME280;57735;56.264;43.898;2023-09-30T05:07:46;101057.47;;;14.17;73.80
70323;BME280;57735;56.264;43.898;2023-09-30T05:10:22;101051.47;;;14.23;73.92
70323;BME280;57735;56.264;43.898;2023-09-30T05:12:53;101055.84;;;14.32;73.75
70323;BME280;57735;56.264;43.898;2023-09-30T05:15:25;101061.94;;;14.43;73.61
70323;BME280;57735;56.264;43.898;2023-09-30T05:17:56;101062.66;;;14.53;73.07
70323;BME280;57735;56.264;43.898;2023-09-30T05:20:27;101061.34;;;14.65;72.73
70323;BME280;57735;56.264;43.898;2023-09-30T05:22:57;101050.47;;;14.75;72.01
70323;BME280;57735;56.264;43.898;2023-09-30T05:25:29;101062.06;;;14.83;71.50
70323;BME280;57735;56.264;43.898;2023-09-30T05:28:03;101048.84;;;14.90;71.14
70323;BME280;57735;56.264;43.898;2023-09-30T05:30:34;101048.00;;;14.97;70.69
70323;BME280;57735;56.264;43.898;2023-09-30T05:33:05;101047.53;;;15.02;70.58
70323;BME280;57735;56.264;43.898;2023-09-30T05:35:44;101051.56;;;15.06;70.59
70323;BME280;57735;56.264;43.898;2023-09-30T05:38:24;101042.13;;;15.10;70.56
70323;BME280;57735;56.264;43.898;2023-09-30T05:40:59;101044.34;;;15.15;70.17
70323;BME280;57735;56.264;43.898;2023-09-30T05:43:32;101039.16;;;15.21;70.19
70323;BME280;57735;56.264;43.898;2023-09-30T05:46:06;101037.63;;;15.27;69.86
70323;BME280;57735;56.264;43.898;2023-09-30T05:48:39;101036.28;;;15.31;69.80
70323;BME280;57735;56.264;43.898;2023-09-30T05:51:10;101045.00;;;15.33;69.88
70323;BME280;57735;56.264;43.898;2023-09-30T05:53:45;101041.31;;;15.34;69.59
70323;BME280;57735;56.264;43.898;2023-09-30T05:56:17;101043.84;;;15.35;69.67
70323;BME280;57735;56.264;43.898;2023-09-30T05:58:48;101039.47;;;15.34;69.59
70323;BME280;57735;56.264;43.898;2023-09-30T06:01:19;101034.75;;;15.28;69.75
70323;BME280;57735;56.264;43.898;2023-09-30T06:03:50;101036.94;;;15.25;69.82
70323;BME280;57735;56.264;43.898;2023-09-30T06:06:21;101034.94;;;15.27;69.85
70323;BME280;57735;56.264;43.898;2023-09-30T06:08:54;101029.06;;;15.31;70.03
70323;BME280;57735;56.264;43.898;2023-09-30T06:11:25;101027.88;;;15.34;70.02
70323;BME280;57735;56.264;43.898;2023-09-30T06:13:59;101019.00;;;15.33;70.08
70323;BME280;57735;56.264;43.898;2023-09-30T06:16:31;101018.50;;;15.38;70.16
70323;BME280;57735;56.264;43.898;2023-09-30T06:19:04;101015.47;;;15.41;70.06
70323;BME280;57735;56.264;43.898;2023-09-30T06:21:35;101006.03;;;15.45;70.12
70323;BME280;57735;56.264;43.898;2023-09-30T06:24:06;101010.75;;;15.51;70.13
70323;BME280;57735;56.264;43.898;2023-09-30T06:26:37;101005.38;;;15.59;70.16
70323;BME280;57735;56.264;43.898;2023-09-30T06:29:08;101004.88;;;15.64;70.09
70323;BME280;57735;56.264;43.898;2023-09-30T06:31:38;101005.53;;;15.74;70.02
70323;BME280;57735;56.264;43.898;2023-09-30T06:34:10;101006.16;;;15.84;69.67
70323;BME280;57735;56.264;43.898;2023-09-30T06:36:43;100989.19;;;15.92;69.80
70323;BME280;57735;56.264;43.898;2023-09-30T06:39:14;101002.06;;;16.04;69.75
70323;BME280;57735;56.264;43.898;2023-09-30T06:41:47;101004.22;;;16.09;69.33
70323;BME280;57735;56.264;43.898;2023-09-30T06:44:18;101002.88;;;16.13;69.72
70323;BME280;57735;56.264;43.898;2023-09-30T06:46:50;101007.56;;;16.11;69.49
70323;BME280;57735;56.264;43.898;2023-09-30T06:49:21;100999.34;;;16.13;69.64
70323;BME280;57735;56.264;43.898;2023-09-30T06:51:57;101001.69;;;16.16;69.84
70323;BME280;57735;56.264;43.898;2023-09-30T06:54:28;101000.00;;;16.15;69.73
70323;BME280;57735;56.264;43.898;2023-09-30T06:56:59;101000.66;;;16.17;69.80
70323;BME280;57735;56.264;43.898;2023-09-30T06:59:32;100999.81;;;16.24;69.91
70323;BME280;57735;56.264;43.898;2023-09-30T07:02:03;100993.72;;;16.30;69.63
70323;BME280;57735;56.264;43.898;2023-09-30T07:04:34;100989.66;;;16.34;69.70
70323;BME280;57735;56.264;43.898;2023-09-30T07:07:04;100989.66;;;16.34;69.56
70323;BME280;57735;56.264;43.898;2023-09-30T07:09:35;100997.72;;;16.34;69.68
70323;BME280;57735;56.264;43.898;2023-09-30T07:12:07;100996.38;;;16.38;69.79
70323;BME280;57735;56.264;43.898;2023-09-30T07:14:40;100992.97;;;16.45;69.71
70323;BME280;57735;56.264;43.898;2023-09-30T07:17:10;100992.59;;;16.48;70.07
70323;BME280;57735;56.264;43.898;2023-09-30T07:19:41;100989.75;;;16.49;69.64
70323;BME280;57735;56.264;43.898;2023-09-30T07:22:12;100993.09;;;16.51;69.51
70323;BME280;57735;56.264;43.898;2023-09-30T07:24:43;100991.06;;;16.53;69.37
70323;BME280;57735;56.264;43.898;2023-09-30T07:27:15;100985.47;;;16.63;69.37
70323;BME280;57735;56.264;43.898;2023-09-30T07:29:50;100989.91;;;16.79;69.05
70323;BME280;57735;56.264;43.898;2023-09-30T07:32:21;100990.81;;;16.94;68.68
70323;BME280;57735;56.264;43.898;2023-09-30T07:34:54;100991.72;;;17.09;68.25
70323;BME280;57735;56.264;43.898;2023-09-30T07:37:25;100994.34;;;17.17;67.96
70323;BME280;57735;56.264;43.898;2023-09-30T07:39:56;100997.34;;;17.22;67.39
70323;BME280;57735;56.264;43.898;2023-09-30T07:42:27;100990.00;;;17.31;67.42
70323;BME280;57735;56.264;43.898;2023-09-30T07:44:57;100986.22;;;17.40;67.11
70323;BME280;57735;56.264;43.898;2023-09-30T07:47:28;100985.28;;;17.48;67.08
70323;BME280;57735;56.264;43.898;2023-09-30T07:50:01;100986.31;;;17.61;66.89
70323;BME280;57735;56.264;43.898;2023-09-30T07:52:40;100977.91;;;17.79;66.54
70323;BME280;57735;56.264;43.898;2023-09-30T07:55:12;100969.38;;;17.90;66.08
70323;BME280;57735;56.264;43.898;2023-09-30T07:57:43;100979.88;;;18.00;65.35
70323;BME280;57735;56.264;43.898;2023-09-30T08:00:14;100971.69;;;18.08;65.17
70323;BME280;57735;56.264;43.898;2023-09-30T08:02:45;100983.56;;;18.13;64.72
70323;BME280;57735;56.264;43.898;2023-09-30T08:05:16;100973.53;;;18.22;64.83
70323;BME280;57735;56.264;43.898;2023-09-30T08:07:47;100969.47;;;18.33;64.49
70323;BME280;57735;56.264;43.898;2023-09-30T08:10:18;100962.50;;;18.38;64.26
70323;BME280;57735;56.264;43.898;2023-09-30T08:12:49;100960.03;;;18.43;64.17
70323;BME280;57735;56.264;43.898;2023-09-30T08:15:20;100960.78;;;18.52;64.00
70323;BME280;57735;56.264;43.898;2023-09-30T08:17:51;100955.28;;;18.60;63.88
70323;BME280;57735;56.264;43.898;2023-09-30T08:20:22;100956.00;;;18.69;63.90
70323;BME280;57735;56.264;43.898;2023-09-30T08:22:55;100955.47;;;18.80;63.59
70323;BME280;57735;56.264;43.898;2023-09-30T08:25:29;100952.66;;;18.88;63.61
70323;BME280;57735;56.264;43.898;2023-09-30T08:27:59;100945.31;;;19.03;63.47
70323;BME280;57735;56.264;43.898;2023-09-30T08:30:33;100946.00;;;19.12;63.14
70323;BME280;57735;56.264;43.898;2023-09-30T08:33:06;100944.56;;;19.16;62.89
70323;BME280;57735;56.264;43.898;2023-09-30T08:35:38;100943.75;;;19.15;62.91
70323;BME280;57735;56.264;43.898;2023-09-30T08:38:09;100940.00;;;19.16;63.06
70323;BME280;57735;56.264;43.898;2023-09-30T08:40:40;100928.34;;;19.16;63.11
70323;BME280;57735;56.264;43.898;2023-09-30T08:43:11;100932.16;;;19.22;62.87
70323;BME280;57735;56.264;43.898;2023-09-30T08:45:43;100933.91;;;19.36;62.14
70323;BME280;57735;56.264;43.898;2023-09-30T08:48:17;100924.41;;;19.46;62.01
70323;BME280;57735;56.264;43.898;2023-09-30T08:50:48;100932.25;;;19.63;61.45
70323;BME280;57735;56.264;43.898;2023-09-30T08:53:20;100922.34;;;19.76;61.19
70323;BME280;57735;56.264;43.898;2023-09-30T08:55:55;100922.00;;;19.93;60.69
70323;BME280;57735;56.264;43.898;2023-09-30T08:58:27;100917.28;;;20.08;60.39
70323;BME280;57735;56.264;43.898;2023-09-30T09:00:59;100912.94;;;20.20;59.71
70323;BME280;57735;56.264;43.898;2023-09-30T09:03:31;100912.75;;;20.28;58.90
70323;BME280;57735;56.264;43.898;2023-09-30T09:06:02;100916.16;;;20.37;58.49
70323;BME280;57735;56.264;43.898;2023-09-30T09:08:33;100911.59;;;20.44;58.29
70323;BME280;57735;56.264;43.898;2023-09-30T09:11:04;100923.47;;;20.49;58.22
70323;BME280;57735;56.264;43.898;2023-09-30T09:13:53;100910.56;;;20.58;57.81
70323;BME280;57735;56.264;43.898;2023-09-30T09:16:26;100915.78;;;20.66;57.70
70323;BME280;57735;56.264;43.898;2023-09-30T09:18:57;100907.88;;;20.71;57.63
70323;BME280;57735;56.264;43.898;2023-09-30T09:21:28;100906.63;;;20.80;57.27
70323;BME280;57735;56.264;43.898;2023-09-30T09:24:03;100905.16;;;20.84;57.15
70323;BME280;57735;56.264;43.898;2023-09-30T09:26:36;100903.72;;;20.88;57.05
70323;BME280;57735;56.264;43.898;2023-09-30T09:29:08;100900.38;;;21.00;57.02
70323;BME280;57735;56.264;43.898;2023-09-30T09:31:39;100901.63;;;21.04;56.51
70323;BME280;57735;56.264;43.898;2023-09-30T09:34:15;100891.19;;;21.14;56.14
70323;BME280;57735;56.264;43.898;2023-09-30T09:36:46;100896.66;;;21.20;55.16
70323;BME280;57735;56.264;43.898;2023-09-30T09:39:29;100896.66;;;21.20;55.20
70323;BME280;57735;56.264;43.898;2023-09-30T09:42:01;100892.03;;;21.14;55.13
70323;BME280;57735;56.264;43.898;2023-09-30T09:44:36;100889.31;;;21.14;54.92
70323;BME280;57735;56.264;43.898;2023-09-30T09:47:08;100890.97;;;21.15;54.91
70323;BME280;57735;56.264;43.898;2023-09-30T09:49:39;100890.78;;;21.17;55.06
70323;BME280;57735;56.264;43.898;2023-09-30T09:52:11;100888.69;;;21.19;54.80
70323;BME280;57735;56.264;43.898;2023-09-30T09:54:44;100878.06;;;21.31;54.62
70323;BME280;57735;56.264;43.898;2023-09-30T09:57:17;100889.94;;;21.43;54.13
70323;BME280;57735;56.264;43.898;2023-09-30T09:59:49;100875.09;;;21.52;53.39
70323;BME280;57735;56.264;43.898;2023-09-30T10:02:22;100874.63;;;21.68;53.55
70323;BME280;57735;56.264;43.898;2023-09-30T10:04:53;100874.59;;;21.75;52.02
70323;BME280;57735;56.264;43.898;2023-09-30T10:07:34;100876.91;;;21.71;51.27
70323;BME280;57735;56.264;43.898;2023-09-30T10:10:11;100873.16;;;21.72;51.54
70323;BME280;57735;56.264;43.898;2023-09-30T10:12:44;100856.44;;;21.75;51.50
70323;BME280;57735;56.264;43.898;2023-09-30T10:15:38;100860.19;;;21.74;50.37
70323;BME280;57735;56.264;43.898;2023-09-30T10:18:13;100858.31;;;21.75;50.59
70323;BME280;57735;56.264;43.898;2023-09-30T10:20:44;100864.38;;;21.77;50.49
70323;BME280;57735;56.264;43.898;2023-09-30T10:25:53;100852.84;;;21.81;50.40
70323;BME280;57735;56.264;43.898;2023-09-30T10:28:47;100853.47;;;21.83;50.44
70323;BME280;57735;56.264;43.898;2023-09-30T10:31:21;100851.13;;;21.93;50.89
70323;BME280;57735;56.264;43.898;2023-09-30T10:36:36;100842.16;;;21.93;50.21
70323;BME280;57735;56.264;43.898;2023-09-30T10:39:12;100844.69;;;21.88;50.33
70323;BME280;57735;56.264;43.898;2023-09-30T10:46:53;100832.56;;;21.90;50.56
70323;BME280;57735;56.264;43.898;2023-09-30T10:52:00;100835.66;;;22.01;50.40
70323;BME280;57735;56.264;43.898;2023-09-30T10:54:32;100825.00;;;22.06;49.90
70323;BME280;57735;56.264;43.898;2023-09-30T10:57:04;100828.31;;;22.08;49.89
70323;BME280;57735;56.264;43.898;2023-09-30T10:59:37;100830.22;;;22.07;50.18
70323;BME280;57735;56.264;43.898;2023-09-30T11:02:19;100828.13;;;22.03;49.84
70323;BME280;57735;56.264;43.898;2023-09-30T11:04:50;100822.28;;;21.99;49.99
70323;BME280;57735;56.264;43.898;2023-09-30T11:07:22;100822.94;;;21.94;49.90
70323;BME280;57735;56.264;43.898;2023-09-30T11:09:56;100827.53;;;21.94;50.13
70323;BME280;57735;56.264;43.898;2023-09-30T11:12:26;100825.19;;;21.98;50.01
70323;BME280;57735;56.264;43.898;2023-09-30T11:15:07;100827.69;;;21.99;50.17
70323;BME280;57735;56.264;43.898;2023-09-30T11:17:40;100823.31;;;22.05;49.97
70323;BME280;57735;56.264;43.898;2023-09-30T11:20:11;100825.19;;;22.11;50.15
70323;BME280;57735;56.264;43.898;2023-09-30T11:22:41;100819.69;;;22.17;49.81
70323;BME280;57735;56.264;43.898;2023-09-30T11:25:19;100814.22;;;22.24;49.57
70323;BME280;57735;56.264;43.898;2023-09-30T11:27:50;100815.69;;;22.26;49.66
70323;BME280;57735;56.264;43.898;2023-09-30T11:30:21;100813.31;;;22.30;49.27
70323;BME280;57735;56.264;43.898;2023-09-30T11:32:58;100810.56;;;22.37;49.27
70323;BME280;57735;56.264;43.898;2023-09-30T11:35:30;100818.28;;;22.40;49.06
70323;BME280;57735;56.264;43.898;2023-09-30T11:38:01;100813.47;;;22.42;48.93
70323;BME280;57735;56.264;43.898;2023-09-30T11:40:32;100805.13;;;22.37;48.99
70323;BME280;57735;56.264;43.898;2023-09-30T11:43:10;100803.03;;;22.39;49.10
70323;BME280;57735;56.264;43.898;2023-09-30T11:45:42;100807.44;;;22.40;49.22
70323;BME280;57735;56.264;43.898;2023-09-30T11:48:19;100796.78;;;22.38;49.52
70323;BME280;57735;56.264;43.898;2023-09-30T11:50:52;100800.09;;;22.40;49.18
70323;BME280;57735;56.264;43.898;2023-09-30T11:53:27;100795.72;;;22.39;48.77
70323;BME280;57735;56.264;43.898;2023-09-30T11:55:59;100798.47;;;22.33;48.83
70323;BME280;57735;56.264;43.898;2023-09-30T11:58:30;100801.25;;;22.26;48.87
70323;BME280;57735;56.264;43.898;2023-09-30T12:01:02;100793.19;;;22.13;49.15
70323;BME280;57735;56.264;43.898;2023-09-30T12:03:33;100790.31;;;22.08;49.56
70323;BME280;57735;56.264;43.898;2023-09-30T12:06:10;100781.56;;;22.06;49.35
70323;BME280;57735;56.264;43.898;2023-09-30T12:08:44;100794.72;;;22.02;49.46
70323;BME280;57735;56.264;43.898;2023-09-30T12:11:15;100787.41;;;21.96;49.27
70323;BME280;57735;56.264;43.898;2023-09-30T12:13:46;100790.78;;;21.91;49.29
70323;BME280;57735;56.264;43.898;2023-09-30T12:16:19;100782.69;;;21.85;49.52
70323;BME280;57735;56.264;43.898;2023-09-30T12:18:51;100776.22;;;21.79;49.87
70323;BME280;57735;56.264;43.898;2023-09-30T12:21:22;100786.09;;;21.74;49.98
70323;BME280;57735;56.264;43.898;2023-09-30T12:23:54;100785.03;;;21.75;50.07
70323;BME280;57735;56.264;43.898;2023-09-30T12:26:25;100778.09;;;21.79;50.16
70323;BME280;57735;56.264;43.898;2023-09-30T12:28:56;100770.38;;;21.82;50.10
70323;BME280;57735;56.264;43.898;2023-09-30T12:31:27;100766.19;;;21.86;50.26
70323;BME280;57735;56.264;43.898;2023-09-30T12:33:59;100758.66;;;21.88;50.06
70323;BME280;57735;56.264;43.898;2023-09-30T12:36:30;100761.97;;;21.90;50.32
70323;BME280;57735;56.264;43.898;2023-09-30T12:39:01;100757.38;;;21.91;50.02
70323;BME280;57735;56.264;43.898;2023-09-30T12:41:34;100756.56;;;21.90;50.36
70323;BME280;57735;56.264;43.898;2023-09-30T12:44:09;100749.03;;;21.92;50.30
70323;BME280;57735;56.264;43.898;2023-09-30T12:46:40;100750.06;;;21.91;50.39
70323;BME280;57735;56.264;43.898;2023-09-30T12:49:11;100749.25;;;21.91;50.28
70323;BME280;57735;56.264;43.898;2023-09-30T12:51:42;100753.84;;;21.90;50.24
70323;BME280;57735;56.264;43.898;2023-09-30T12:54:13;100747.59;;;21.90;50.37
70323;BME280;57735;56.264;43.898;2023-09-30T12:56:45;100744.66;;;21.91;50.46
70323;BME280;57735;56.264;43.898;2023-09-30T12:59:17;100741.94;;;21.91;50.02
70323;BME280;57735;56.264;43.898;2023-09-30T13:01:48;100737.97;;;21.94;49.74
70323;BME280;57735;56.264;43.898;2023-09-30T13:04:19;100741.50;;;21.94;49.57
70323;BME280;57735;56.264;43.898;2023-09-30T13:06:52;100740.66;;;21.94;49.91
70323;BME280;57735;56.264;43.898;2023-09-30T13:09:23;100732.75;;;21.92;50.13
70323;BME280;57735;56.264;43.898;2023-09-30T13:11:56;100735.06;;;21.89;50.04
70323;BME280;57735;56.264;43.898;2023-09-30T13:14:30;100724.00;;;21.84;50.14
70323;BME280;57735;56.264;43.898;2023-09-30T13:17:01;100736.97;;;21.82;50.22
70323;BME280;57735;56.264;43.898;2023-09-30T13:19:34;100725.13;;;21.76;50.44